Main page
METAR-TAF:

Airports :

Warsaw, Poland

Warsaw Chopin Airport

latitude: 52-10N, longitude: 020-58E, elevation: 106 m

Current weather observation

The report was made 18 minutes ago, at 14:30 UTC
Wind 13 kt from the South/Southeast
Temperature 9°C
Humidity 53%
Pressure 1009 hPa
Visibility 10 km or more
no clouds below 1500 m and no cumulonimbus

METAR: EPWA 071430Z 15013KT CAVOK 09/00 Q1009 NOSIG

Time: 15:48 (14:48 UTC)

Forecast

The report was made 3 hours and 18 minutes ago, at 11:30 UTC
Forecast valid from 07 at 12 UTC to 08 at 12 UTC
Wind 11 kt from the South/Southeast
Visibility 10 km or more
no clouds below 1500 m and no cumulonimbus
Probability 30% :
Temporary
from 08 at 08 UTC to 08 at 11 UTC
Broken clouds at a height of 1400 ft

TAF: EPWA 071130Z 0712/0812 16011KT CAVOK PROB30 TEMPO 0808/0811 BKN014

METAR-TAF

Weather observations and forecasts of more than 4000 airports (METAR and TAF reports).

The available stations are represented by yellow and red dots on the map.

Hover mouse over dot to see the name of the station.

Then click to see weather observations and forecasts.

To change the map : click on the green buttons with a black cross to zoom in, on the green button with a dash to zoom out, or on the green arrows for adjacent maps.


METAR-TAF: